Gary Chicago International Airport
KGYY : now visible

Airfield :











YOU CAN JOIN US ON...

 
LOGIN :

Register | Disclaimer

   EN    FR    IT 

 









Legend :    VFR   Marginal VFR   IFR   Intensive IFR   Very Intensive IFR
Visi :
Ceiling :
>= 8 km
>= 3000ft
5 to 8 km
1000 to 3000 ft
1500m to 5 km
500 to 1000 ft
800 to 1500m
200 to 500 ft
< 800m
< 200 ft
Symbols :   Thunderstorms  Fog  Heavy snow  Heavy precipitations  Wind > 20 kt






- Airport Elevation : 591 ft
- IATA code : GYY


KGYY - Gary Chicago International

CURRENT METAR :
  • 280935Z AUTO 29005KT 10SM CLR M06/M13 A3004 RMK AO2 T10631134

EXPIRED METARs :
  • 280915Z AUTO 30007KT 10SM CLR M06/M14 A3004 RMK AO2 T10581138
  • 280855Z AUTO 30006KT 10SM CLR M06/M14 A3004 RMK AO2 T10571136
  • 280835Z AUTO 29008KT 10SM CLR M05/M14 A3005 RMK AO2 T10551136
  • 280815Z AUTO 29007KT 10SM CLR M05/M13 A3005 RMK AO2 T10551131
  • 280755Z AUTO 30007KT 10SM CLR M05/M13 A3005 RMK AO2 T10531134
  • 280735Z AUTO 29007KT 10SM CLR M05/M13 A3005 RMK AO2 T10551132
  • 280715Z AUTO 29008KT 10SM CLR M05/M13 A3005 RMK AO2 T10501135
  • 280655Z AUTO 29008KT 10SM CLR M04/M13 A3005 RMK AO2 T10451135

TAF KGYY
Valid from the 28 at 09:00 until the 29 at 06:00 UTC


280849Z 2809/2906 29008KT P6SM BKN100
FM281700 29012G18KT P6SM FEW050 SCT250
FM282100 29013KT P6SM SKC



MET'MAP, your aeronautical weather chart ! - Copyright ORBIFLY December 2007 - Disclaimer

ORBIFLY MET'MAP TEAM :

Programming & Development : Alexandra Zaïnal
Concept & original design : Baudouin d'Aumeries
Assistance for programming : Marc-Olivier Méhu
Technical & hardware support : Manuel Goepfert

Contact : metmap@orbifly.com




SOURCES & CREDITS :

   NOAA       Earth
Advisory